createdAt,value
2023-03-28T00:01:01.360Z,101992.56
2023-03-28T00:03:29.491Z,101989.00
2023-03-28T00:05:58.111Z,101999.84
2023-03-28T00:08:24.886Z,101993.81
2023-03-28T00:10:51.417Z,101997.78
2023-03-28T00:13:19.931Z,102006.06
2023-03-28T00:15:46.693Z,102001.50
2023-03-28T00:18:13.363Z,102007.53
2023-03-28T00:20:43.469Z,102010.09
2023-03-28T00:23:13.500Z,102012.53
2023-03-28T00:25:41.872Z,102010.84
2023-03-28T00:28:09.206Z,102006.13
2023-03-28T00:30:35.953Z,102015.25
2023-03-28T00:33:05.097Z,102013.56
2023-03-28T00:35:32.395Z,102019.00
2023-03-28T00:37:59.139Z,102019.25
2023-03-28T00:40:26.466Z,102020.34
2023-03-28T00:42:53.713Z,102013.22
2023-03-28T00:45:23.682Z,102009.88
2023-03-28T00:47:51.585Z,102011.13
2023-03-28T00:50:29.309Z,102011.38
2023-03-28T00:53:04.582Z,102014.34
2023-03-28T00:55:42.445Z,102015.84
2023-03-28T00:58:12.517Z,102013.38
2023-03-28T01:00:41.417Z,102017.31
2023-03-28T01:03:09.049Z,102009.31
2023-03-28T01:05:36.390Z,102005.88
2023-03-28T01:08:21.869Z,102014.13
2023-03-28T01:10:48.964Z,102007.09
2023-03-28T01:13:19.301Z,102013.41
2023-03-28T01:15:49.695Z,102017.09
2023-03-28T01:18:18.565Z,102025.38
2023-03-28T01:20:56.352Z,102026.72
2023-03-28T01:23:32.100Z,102018.94
2023-03-28T01:26:25.695Z,102026.25
2023-03-28T01:29:05.006Z,102023.75
2023-03-28T01:32:01.044Z,102022.88
2023-03-28T01:34:46.316Z,102024.00
2023-03-28T01:37:41.517Z,102022.16
2023-03-28T01:40:31.205Z,102017.97
2023-03-28T01:43:12.790Z,102017.09
2023-03-28T01:46:01.081Z,102014.28
2023-03-28T01:48:36.983Z,102027.94
2023-03-28T01:51:25.179Z,102017.09
2023-03-28T01:54:26.588Z,102020.94
2023-03-28T01:57:10.680Z,102012.19
2023-03-28T02:00:19.579Z,102016.13
2023-03-28T02:02:52.422Z,102013.53
2023-03-28T02:05:20.736Z,102016.63
2023-03-28T02:07:49.334Z,102007.75
2023-03-28T02:10:19.461Z,102006.00
2023-03-28T02:12:52.029Z,102014.91
2023-03-28T02:15:22.169Z,102004.78
2023-03-28T02:17:54.219Z,102005.53
2023-03-28T02:20:24.787Z,102004.41
2023-03-28T02:22:57.059Z,102012.44
2023-03-28T02:25:23.761Z,102012.44
2023-03-28T02:27:54.491Z,102005.28
2023-03-28T02:30:21.682Z,102012.53
2023-03-28T02:32:50.539Z,102004.66
2023-03-28T02:35:24.149Z,102005.78
2023-03-28T02:38:04.102Z,102004.31
2023-03-28T02:40:37.001Z,101999.13
2023-03-28T02:43:09.339Z,101998.50
2023-03-28T02:46:07.076Z,101989.88
2023-03-28T02:48:45.500Z,101996.41
2023-03-28T02:51:30.163Z,102002.91
2023-03-28T02:54:13.636Z,102012.06
2023-03-28T02:57:01.829Z,102006.63
2023-03-28T02:59:39.255Z,102021.16
2023-03-28T03:02:05.826Z,102016.63
2023-03-28T03:04:32.258Z,102010.19
2023-03-28T03:07:01.992Z,102009.22
2023-03-28T03:09:28.797Z,102014.63
2023-03-28T03:11:55.231Z,102018.31
2023-03-28T03:14:22.462Z,102014.88
2023-03-28T03:16:48.974Z,102026.69
2023-03-28T03:19:15.463Z,102020.28
2023-03-28T03:21:42.130Z,102029.41
2023-03-28T03:24:09.790Z,102021.16
2023-03-28T03:26:36.393Z,102019.19
2023-03-28T03:29:02.985Z,102023.50
2023-03-28T03:31:30.059Z,102029.75
2023-03-28T03:33:56.552Z,102031.66
2023-03-28T03:36:25.302Z,102024.34
2023-03-28T03:38:52.373Z,102019.78
2023-03-28T03:41:18.793Z,102017.94
2023-03-28T03:43:47.153Z,102019.78
2023-03-28T03:46:13.826Z,102026.09
2023-03-28T03:48:49.445Z,102022.50
2023-03-28T03:51:17.021Z,102025.47
2023-03-28T03:53:43.549Z,102020.91
2023-03-28T03:56:10.193Z,102032.72
2023-03-28T03:58:36.850Z,102025.59
2023-03-28T04:01:03.438Z,102026.34
2023-03-28T04:03:30.237Z,102034.34
2023-03-28T04:05:58.158Z,102028.78
2023-03-28T04:08:25.022Z,102033.09
2023-03-28T04:10:51.911Z,102035.59
2023-03-28T04:13:18.298Z,102039.78
2023-03-28T04:15:47.712Z,102046.66
2023-03-28T04:18:15.457Z,102045.56
2023-03-28T04:20:43.421Z,102049.78
2023-03-28T04:23:10.137Z,102044.97
2023-03-28T04:25:36.836Z,102056.28
2023-03-28T04:28:03.515Z,102057.75
2023-03-28T04:30:29.911Z,102054.81
2023-03-28T04:32:56.409Z,102049.16
2023-03-28T04:35:24.111Z,102049.03
2023-03-28T04:37:50.584Z,102050.66
2023-03-28T04:40:17.728Z,102048.75
2023-03-28T04:42:44.529Z,102049.78
2023-03-28T04:45:11.561Z,102046.31
2023-03-28T04:47:39.994Z,102054.59
2023-03-28T04:50:10.454Z,102054.81
2023-03-28T04:52:36.962Z,102061.34
2023-03-28T04:55:04.426Z,102058.78
2023-03-28T04:57:30.952Z,102065.19
2023-03-28T04:59:57.531Z,102068.00
2023-03-28T05:02:24.056Z,102068.00
2023-03-28T05:04:50.537Z,102071.56
2023-03-28T05:07:17.021Z,102083.28
2023-03-28T05:09:43.398Z,102078.84
2023-03-28T05:12:09.846Z,102072.69
2023-03-28T05:14:36.300Z,102072.78
2023-03-28T05:17:02.704Z,102074.88
2023-03-28T05:19:29.134Z,102072.31
2023-03-28T05:21:55.946Z,102079.69
2023-03-28T05:24:22.404Z,102083.38
2023-03-28T05:26:48.858Z,102078.19
2023-03-28T05:29:15.271Z,102082.91
2023-03-28T05:31:41.722Z,102085.84
2023-03-28T05:34:08.144Z,102089.66
2023-03-28T05:36:34.548Z,102087.06
2023-03-28T05:39:00.951Z,102090.63
2023-03-28T05:41:28.094Z,102084.38
2023-03-28T05:43:54.521Z,102083.50
2023-03-28T05:46:21.021Z,102093.47
2023-03-28T05:48:49.389Z,102088.03
2023-03-28T05:51:17.040Z,102094.44
2023-03-28T05:53:43.800Z,102086.31
2023-03-28T05:56:10.651Z,102087.91
2023-03-28T05:58:37.083Z,102092.97
2023-03-28T06:01:04.556Z,102094.47
2023-03-28T06:03:32.012Z,102096.81
2023-03-28T06:05:58.726Z,102080.31
2023-03-28T06:08:25.321Z,102090.03
2023-03-28T06:10:51.738Z,102089.69
2023-03-28T06:13:18.224Z,102090.28
2023-03-28T06:15:44.649Z,102096.47
2023-03-28T06:18:11.278Z,102087.34
2023-03-28T06:20:37.711Z,102088.81
2023-03-28T06:23:04.263Z,102092.28
2023-03-28T06:25:30.785Z,102094.84
2023-03-28T06:27:57.812Z,102093.00
2023-03-28T06:30:24.269Z,102104.63
2023-03-28T06:32:50.889Z,102099.19
2023-03-28T06:35:18.260Z,102107.19
2023-03-28T06:37:44.677Z,102104.38
2023-03-28T06:40:11.584Z,102111.28
2023-03-28T06:42:38.163Z,102112.75
2023-03-28T06:45:04.946Z,102122.25
2023-03-28T06:47:31.397Z,102120.91
2023-03-28T06:49:57.814Z,102118.41
2023-03-28T06:52:24.307Z,102116.94
2023-03-28T06:54:51.281Z,102119.16
2023-03-28T06:57:17.740Z,102124.06
2023-03-28T06:59:44.412Z,102124.47
2023-03-28T07:02:11.646Z,102122.09
2023-03-28T07:04:38.131Z,102118.88
2023-03-28T07:07:04.645Z,102120.09
2023-03-28T07:09:31.323Z,102118.59
2023-03-28T07:11:57.695Z,102119.94
2023-03-28T07:14:24.192Z,102125.72
2023-03-28T07:16:50.685Z,102124.09
2023-03-28T07:19:17.186Z,102123.47
2023-03-28T07:21:43.767Z,102117.38
2023-03-28T07:24:10.297Z,102120.28
2023-03-28T07:26:36.755Z,102111.25
2023-03-28T07:29:03.479Z,102115.28
2023-03-28T07:31:29.972Z,102103.63
2023-03-28T07:33:58.177Z,102106.41
2023-03-28T07:36:26.803Z,102102.63
2023-03-28T07:38:53.247Z,102104.41
2023-03-28T07:41:19.875Z,102102.72
2023-03-28T07:43:46.348Z,102102.78
2023-03-28T07:46:15.457Z,102109.13
2023-03-28T07:48:43.188Z,102100.00
2023-03-28T07:51:10.791Z,102108.38
2023-03-28T07:53:38.033Z,102113.84
2023-03-28T07:56:06.264Z,102127.03
2023-03-28T07:58:32.674Z,102126.03
2023-03-28T08:01:05.983Z,102124.78
2023-03-28T08:03:32.635Z,102129.28
2023-03-28T08:06:13.351Z,102124.72
2023-03-28T08:08:47.064Z,102119.28
2023-03-28T08:11:13.486Z,102115.88
2023-03-28T08:13:39.907Z,102116.72
2023-03-28T08:16:06.864Z,102118.03
2023-03-28T08:18:33.408Z,102111.72
2023-03-28T08:21:02.383Z,102116.75
2023-03-28T08:23:29.203Z,102126.91
2023-03-28T08:26:04.809Z,102125.50
2023-03-28T08:28:35.953Z,102129.25
2023-03-28T08:31:09.448Z,102122.34
2023-03-28T08:33:35.941Z,102115.88
2023-03-28T08:36:02.408Z,102104.25
2023-03-28T08:38:29.138Z,102109.09
2023-03-28T08:41:03.413Z,102105.91
2023-03-28T08:44:00.153Z,102107.19
2023-03-28T08:46:28.325Z,102108.19
2023-03-28T08:48:56.721Z,102116.66
2023-03-28T08:51:30.555Z,102127.44
2023-03-28T08:54:21.940Z,102120.09
2023-03-28T08:57:01.973Z,102121.34
2023-03-28T08:59:43.584Z,102132.69
2023-03-28T09:02:21.875Z,102136.53
2023-03-28T09:04:49.178Z,102124.28
2023-03-28T09:07:28.246Z,102116.81
2023-03-28T09:10:26.986Z,102119.81
2023-03-28T09:13:11.942Z,102118.28
2023-03-28T09:16:16.713Z,102115.16
2023-03-28T09:19:37.089Z,102125.72
2023-03-28T09:22:26.955Z,102113.78
2023-03-28T09:25:30.690Z,102114.53
2023-03-28T09:28:06.276Z,102108.69
2023-03-28T09:30:37.355Z,102106.41
2023-03-28T09:33:12.318Z,102109.19
2023-03-28T09:35:41.109Z,102101.06
2023-03-28T09:38:17.991Z,102094.59
2023-03-28T09:40:47.515Z,102097.28
2023-03-28T09:43:49.476Z,102101.06
2023-03-28T09:46:25.546Z,102087.84
2023-03-28T09:48:52.186Z,102087.09
2023-03-28T09:51:20.431Z,102089.19
2023-03-28T09:53:47.245Z,102074.66
2023-03-28T09:56:43.432Z,102071.47
2023-03-28T09:59:27.701Z,102055.59
2023-03-28T10:01:56.218Z,102059.06
2023-03-28T10:04:28.738Z,102049.50
2023-03-28T10:07:10.832Z,102055.00
2023-03-28T10:09:47.705Z,102053.06
2023-03-28T10:12:20.451Z,102044.34
2023-03-28T10:14:47.505Z,102040.53
2023-03-28T10:17:30.986Z,102033.00
2023-03-28T10:20:05.438Z,102033.00
2023-03-28T10:22:35.200Z,102032.44
2023-03-28T10:25:05.451Z,102038.13
2023-03-28T10:27:35.359Z,102035.38
2023-03-28T10:30:30.943Z,102026.38
2023-03-28T10:33:16.220Z,102026.88
2023-03-28T10:35:48.137Z,102017.38
2023-03-28T10:38:19.856Z,102010.31
2023-03-28T10:41:01.468Z,102002.41
2023-03-28T10:43:34.207Z,102000.38
2023-03-28T10:46:03.855Z,101998.13
2023-03-28T10:48:33.793Z,101990.88
2023-03-28T10:51:08.466Z,101980.97
2023-03-28T10:54:08.270Z,101981.69
2023-03-28T10:56:54.388Z,101967.28
2023-03-28T10:59:23.675Z,101978.31
2023-03-28T11:02:08.964Z,101967.41
2023-03-28T11:04:46.352Z,101960.66
2023-03-28T11:07:22.736Z,101958.63
2023-03-28T11:10:03.095Z,101950.94
2023-03-28T11:13:04.812Z,101942.31
2023-03-28T11:15:37.694Z,101952.69
2023-03-28T11:18:41.911Z,101949.53
2023-03-28T11:21:48.588Z,101943.72
2023-03-28T11:24:52.852Z,101934.91
2023-03-28T11:27:27.169Z,101931.69
2023-03-28T11:29:57.023Z,101928.22
2023-03-28T11:32:41.548Z,101918.03
2023-03-28T11:35:38.470Z,101916.00
2023-03-28T11:38:17.810Z,101923.88
2023-03-28T11:40:59.488Z,101912.66
2023-03-28T11:43:34.829Z,101910.84
2023-03-28T11:46:20.715Z,101918.88
2023-03-28T11:49:15.670Z,101905.59
2023-03-28T11:51:55.707Z,101904.13
2023-03-28T11:54:28.505Z,101908.66
2023-03-28T11:57:08.565Z,101907.91
2023-03-28T11:59:47.340Z,101897.28
2023-03-28T12:02:44.104Z,101890.63
2023-03-28T12:05:32.668Z,101887.38
2023-03-28T12:08:09.111Z,101882.09
2023-03-28T12:10:37.229Z,101861.31
2023-03-28T12:13:15.861Z,101862.03
2023-03-28T12:15:53.946Z,101856.59
2023-03-28T12:18:38.628Z,101840.81
2023-03-28T12:21:43.335Z,101832.59
2023-03-28T12:24:24.684Z,101831.75
2023-03-28T12:27:14.687Z,101841.41
2023-03-28T12:30:11.324Z,101841.22
2023-03-28T12:32:48.336Z,101826.41
2023-03-28T12:35:18.360Z,101819.28
2023-03-28T12:38:06.619Z,101814.91
2023-03-28T12:40:53.351Z,101816.97
2023-03-28T12:43:26.449Z,101806.13
2023-03-28T12:46:00.428Z,101807.97
2023-03-28T12:48:26.764Z,101798.91
2023-03-28T12:50:59.528Z,101798.03
2023-03-28T12:53:26.514Z,101808.59
2023-03-28T12:55:53.108Z,101787.84
2023-03-28T12:58:21.124Z,101791.50
2023-03-28T13:01:08.939Z,101789.00
2023-03-28T13:04:03.158Z,101794.34
2023-03-28T13:07:02.042Z,101779.94
2023-03-28T13:09:51.534Z,101799.78
2023-03-28T13:12:56.121Z,101782.91
2023-03-28T13:15:29.365Z,101772.72
2023-03-28T13:18:17.183Z,101768.81
2023-03-28T13:20:47.998Z,101761.03
2023-03-28T13:23:17.567Z,101759.31
2023-03-28T13:25:54.332Z,101769.75
2023-03-28T13:28:29.587Z,101754.34
2023-03-28T13:31:09.407Z,101761.69
2023-03-28T13:33:42.882Z,101761.91
2023-03-28T13:36:10.884Z,101756.75
2023-03-28T13:39:11.263Z,101763.59
2023-03-28T13:41:43.710Z,101750.94
2023-03-28T13:44:17.058Z,101745.53
2023-03-28T13:46:46.116Z,101743.84
2023-03-28T13:49:33.071Z,101733.84
2023-03-28T13:52:15.957Z,101730.09
2023-03-28T13:54:42.530Z,101716.72
2023-03-28T13:57:17.550Z,101706.09
2023-03-28T13:59:54.639Z,101696.50
2023-03-28T14:02:44.897Z,101687.63
2023-03-28T14:05:13.321Z,101695.75
2023-03-28T14:07:39.978Z,101686.47
2023-03-28T14:10:29.998Z,101671.56
2023-03-28T14:13:05.470Z,101675.00
2023-03-28T14:15:36.234Z,101666.91
2023-03-28T14:18:03.621Z,101664.56
2023-03-28T14:20:31.957Z,101660.53
2023-03-28T14:23:01.337Z,101658.81
2023-03-28T14:25:28.733Z,101643.91
2023-03-28T14:27:56.680Z,101637.53
2023-03-28T14:30:25.351Z,101641.38
2023-03-28T14:33:01.049Z,101635.84
2023-03-28T14:35:32.001Z,101631.53
2023-03-28T14:38:04.456Z,101616.13
2023-03-28T14:40:39.076Z,101599.06
2023-03-28T14:43:18.343Z,101610.13
2023-03-28T14:45:51.784Z,101608.38
2023-03-28T14:48:21.471Z,101604.88
2023-03-28T14:50:50.808Z,101593.41
2023-03-28T14:53:22.443Z,101605.53
2023-03-28T14:55:51.094Z,101600.84
2023-03-28T14:58:19.123Z,101597.25
2023-03-28T15:00:48.359Z,101590.00
2023-03-28T15:03:17.754Z,101577.59
2023-03-28T15:05:46.021Z,101572.31
2023-03-28T15:08:37.796Z,101555.44
2023-03-28T15:11:16.134Z,101555.97
2023-03-28T15:13:58.350Z,101543.66
2023-03-28T15:16:26.073Z,101538.56
2023-03-28T15:18:58.832Z,101542.75
2023-03-28T15:21:25.754Z,101530.31
2023-03-28T15:23:57.556Z,101532.63
2023-03-28T15:26:34.329Z,101535.50
2023-03-28T15:29:01.208Z,101531.84
2023-03-28T15:31:28.203Z,101519.09
2023-03-28T15:33:55.231Z,101519.50
2023-03-28T15:36:34.801Z,101511.13
2023-03-28T15:39:17.207Z,101508.63
2023-03-28T15:41:48.205Z,101514.31
2023-03-28T15:44:34.578Z,101495.41
2023-03-28T15:47:04.991Z,101495.69
2023-03-28T15:49:36.776Z,101481.94
2023-03-28T15:52:09.375Z,101491.41
2023-03-28T15:54:42.189Z,101476.69
2023-03-28T15:57:12.250Z,101483.13
2023-03-28T15:59:43.748Z,101474.41
2023-03-28T16:02:25.194Z,101482.06
2023-03-28T16:05:09.710Z,101470.34
2023-03-28T16:07:48.244Z,101464.44
2023-03-28T16:10:20.323Z,101471.63
2023-03-28T16:12:47.392Z,101467.16
2023-03-28T16:15:14.597Z,101464.63
2023-03-28T16:17:43.113Z,101459.28
2023-03-28T16:20:23.175Z,101446.97
2023-03-28T16:22:50.601Z,101459.66
2023-03-28T16:25:17.453Z,101459.66
2023-03-28T16:27:43.983Z,101441.38
2023-03-28T16:30:19.369Z,101433.53
2023-03-28T16:32:46.238Z,101435.44
2023-03-28T16:35:12.935Z,101429.72
2023-03-28T16:37:39.389Z,101425.44
2023-03-28T16:40:06.606Z,101420.16
2023-03-28T16:42:33.076Z,101416.09
2023-03-28T16:44:59.855Z,101416.28
2023-03-28T16:47:28.910Z,101412.09
2023-03-28T16:49:55.469Z,101409.91
2023-03-28T16:52:21.897Z,101410.38
2023-03-28T16:54:48.572Z,101415.41
2023-03-28T16:57:15.767Z,101408.19
2023-03-28T16:59:42.285Z,101403.72
2023-03-28T17:02:10.681Z,101404.53
2023-03-28T17:04:37.146Z,101410.03
2023-03-28T17:07:03.563Z,101405.78
2023-03-28T17:09:31.007Z,101406.59
2023-03-28T17:11:57.392Z,101405.28
2023-03-28T17:14:23.826Z,101410.16
2023-03-28T17:16:50.530Z,101404.22
2023-03-28T17:19:19.232Z,101404.84
2023-03-28T17:21:45.687Z,101412.25
2023-03-28T17:24:12.329Z,101414.13
2023-03-28T17:26:38.735Z,101410.09
2023-03-28T17:29:07.392Z,101406.72
2023-03-28T17:31:34.359Z,101411.59
2023-03-28T17:34:01.011Z,101416.88
2023-03-28T17:36:28.796Z,101408.84
2023-03-28T17:38:57.916Z,101414.34
2023-03-28T17:41:25.543Z,101418.16
2023-03-28T17:43:53.347Z,101407.31
2023-03-28T17:46:19.898Z,101414.53
2023-03-28T17:48:46.521Z,101415.59
2023-03-28T17:51:13.773Z,101414.72
2023-03-28T17:53:42.800Z,101408.78
2023-03-28T17:56:11.119Z,101402.81
2023-03-28T17:58:37.842Z,101412.56
2023-03-28T18:01:09.421Z,101415.09
2023-03-28T18:03:36.136Z,101404.47
2023-03-28T18:06:02.836Z,101410.78
2023-03-28T18:08:30.972Z,101412.47
2023-03-28T18:11:02.362Z,101409.06
2023-03-28T18:13:28.746Z,101412.22
2023-03-28T18:15:55.464Z,101418.38
2023-03-28T18:18:21.866Z,101423.59
2023-03-28T18:20:49.618Z,101426.97
2023-03-28T18:23:16.303Z,101429.84
2023-03-28T18:25:43.420Z,101425.03
2023-03-28T18:28:10.193Z,101428.81
2023-03-28T18:30:37.020Z,101416.09
2023-03-28T18:33:03.593Z,101425.44
2023-03-28T18:35:30.322Z,101424.13
2023-03-28T18:37:57.403Z,101420.28
2023-03-28T18:40:23.811Z,101430.66
2023-03-28T18:42:50.362Z,101443.25
2023-03-28T18:45:16.945Z,101444.13
2023-03-28T18:47:43.435Z,101456.50
2023-03-28T18:50:10.802Z,101471.72
2023-03-28T18:52:37.543Z,101481.81
2023-03-28T18:55:05.501Z,101480.31
2023-03-28T18:57:32.634Z,101500.81
2023-03-28T18:59:59.111Z,101485.25
2023-03-28T19:02:26.543Z,101493.25
2023-03-28T19:04:53.102Z,101475.22
2023-03-28T19:07:19.556Z,101488.16
2023-03-28T19:09:46.468Z,101489.88
2023-03-28T19:12:13.224Z,101504.41
2023-03-28T19:14:39.760Z,101507.81
2023-03-28T19:17:07.196Z,101519.38
2023-03-28T19:19:37.139Z,101506.97
2023-03-28T19:22:06.265Z,101501.47
2023-03-28T19:24:33.411Z,101510.75
2023-03-28T19:27:01.396Z,101511.09
2023-03-28T19:29:30.008Z,101514.50
2023-03-28T19:31:56.804Z,101503.28
2023-03-28T19:34:23.270Z,101513.19
2023-03-28T19:36:49.719Z,101514.41
2023-03-28T19:39:16.386Z,101528.91
2023-03-28T19:41:42.862Z,101514.88
2023-03-28T19:44:09.383Z,101509.66
2023-03-28T19:46:38.490Z,101495.13
2023-03-28T19:49:06.332Z,101494.63
2023-03-28T19:51:33.648Z,101496.53
2023-03-28T19:54:00.125Z,101484.53
2023-03-28T19:56:27.126Z,101478.13
2023-03-28T19:58:53.810Z,101463.19
2023-03-28T20:01:20.696Z,101452.72
2023-03-28T20:03:52.131Z,101459.06
2023-03-28T20:06:20.348Z,101450.63
2023-03-28T20:08:46.813Z,101448.94
2023-03-28T20:11:14.863Z,101451.53
2023-03-28T20:13:41.661Z,101439.06
2023-03-28T20:16:09.998Z,101444.06
2023-03-28T20:18:37.467Z,101430.03
2023-03-28T20:21:07.232Z,101422.00
2023-03-28T20:23:33.787Z,101410.56
2023-03-28T20:26:01.671Z,101402.88
2023-03-28T20:28:32.526Z,101397.22
2023-03-28T20:30:59.514Z,101401.53
2023-03-28T20:33:26.286Z,101397.94
2023-03-28T20:35:58.085Z,101408.72
2023-03-28T20:38:26.073Z,101407.50
2023-03-28T20:40:52.749Z,101405.44
2023-03-28T20:43:26.720Z,101398.91
2023-03-28T20:45:55.303Z,101399.28
2023-03-28T20:48:34.958Z,101395.69
2023-03-28T20:51:05.654Z,101400.69
2023-03-28T20:53:33.266Z,101397.81
2023-03-28T20:56:01.920Z,101388.09
2023-03-28T20:58:29.913Z,101384.31
2023-03-28T21:00:58.041Z,101387.06
2023-03-28T21:03:39.212Z,101384.50
2023-03-28T21:06:07.751Z,101391.19
2023-03-28T21:08:36.404Z,101381.91
2023-03-28T21:11:03.606Z,101384.50
2023-03-28T21:13:30.807Z,101389.97
2023-03-28T21:15:57.456Z,101376.91
2023-03-28T21:18:24.125Z,101379.50
2023-03-28T21:20:50.623Z,101385.81
2023-03-28T21:23:17.438Z,101386.69
2023-03-28T21:25:45.381Z,101379.50
2023-03-28T21:28:12.373Z,101384.31
2023-03-28T21:30:40.209Z,101375.41
2023-03-28T21:33:07.043Z,101373.53
2023-03-28T21:35:34.654Z,101364.81
2023-03-28T21:38:01.627Z,101358.00
2023-03-28T21:40:28.090Z,101356.28
2023-03-28T21:42:54.511Z,101359.03
2023-03-28T21:45:21.053Z,101361.97
2023-03-28T21:47:47.651Z,101348.59
2023-03-28T21:50:15.194Z,101359.22
2023-03-28T21:52:41.766Z,101354.78
2023-03-28T21:55:09.239Z,101343.31
2023-03-28T21:57:36.703Z,101329.78
2023-03-28T22:00:14.612Z,101326.19
2023-03-28T22:02:42.411Z,101325.16
2023-03-28T22:05:18.941Z,101325.38
2023-03-28T22:07:53.340Z,101331.03
2023-03-28T22:10:19.973Z,101331.03
2023-03-28T22:12:46.580Z,101332.72
2023-03-28T22:15:14.186Z,101340.75
2023-03-28T22:17:41.822Z,101341.63
2023-03-28T22:20:12.938Z,101337.84
2023-03-28T22:22:42.622Z,101332.38
2023-03-28T22:25:10.892Z,101321.41
2023-03-28T22:27:38.693Z,101317.50
2023-03-28T22:30:11.058Z,101323.22
2023-03-28T22:32:38.942Z,101308.19
2023-03-28T22:35:06.672Z,101293.53
2023-03-28T22:37:34.104Z,101295.94
2023-03-28T22:40:00.559Z,101278.66
2023-03-28T22:42:27.609Z,101282.81
2023-03-28T22:44:54.003Z,101275.63
2023-03-28T22:47:20.474Z,101278.38
2023-03-28T22:49:46.923Z,101278.00
2023-03-28T22:52:13.564Z,101282.94
2023-03-28T22:54:42.571Z,101281.91
2023-03-28T22:57:09.713Z,101280.84
2023-03-28T22:59:36.492Z,101276.25
2023-03-28T23:02:03.272Z,101267.84
2023-03-28T23:04:29.916Z,101269.53
2023-03-28T23:06:56.438Z,101277.56
2023-03-28T23:09:24.779Z,101271.06
2023-03-28T23:11:53.030Z,101262.66
2023-03-28T23:14:19.446Z,101267.09
2023-03-28T23:16:45.951Z,101267.09
2023-03-28T23:19:12.502Z,101270.00
2023-03-28T23:21:38.932Z,101268.13
2023-03-28T23:24:05.569Z,101253.41
2023-03-28T23:26:32.007Z,101247.94
2023-03-28T23:28:58.453Z,101247.56
2023-03-28T23:31:24.894Z,101242.75
2023-03-28T23:33:51.381Z,101234.72
2023-03-28T23:36:20.994Z,101237.28
2023-03-28T23:38:48.674Z,101233.50
2023-03-28T23:41:15.225Z,101233.88
2023-03-28T23:43:41.763Z,101229.06
2023-03-28T23:46:09.044Z,101229.72
2023-03-28T23:48:36.225Z,101228.69
2023-03-28T23:51:03.266Z,101224.06
2023-03-28T23:53:30.486Z,101227.66
2023-03-28T23:55:56.905Z,101220.28
2023-03-28T23:58:23.334Z,101212.25
